sensor_id;sensor_type;location;lat;lon;timestamp;temperature;humidity
22450;DHT22;11392;57.390;-2.468;2023-09-30T00:00:10;10.90;99.90
22450;DHT22;11392;57.390;-2.468;2023-09-30T00:02:38;10.80;99.90
22450;DHT22;11392;57.390;-2.468;2023-09-30T00:05:06;10.80;99.90
22450;DHT22;11392;57.390;-2.468;2023-09-30T00:07:33;10.70;99.90
22450;DHT22;11392;57.390;-2.468;2023-09-30T00:10:00;10.70;99.90
22450;DHT22;11392;57.390;-2.468;2023-09-30T00:12:27;10.70;99.90
22450;DHT22;11392;57.390;-2.468;2023-09-30T00:14:55;10.70;99.90
22450;DHT22;11392;57.390;-2.468;2023-09-30T00:17:21;10.70;99.90
22450;DHT22;11392;57.390;-2.468;2023-09-30T00:19:49;10.70;99.90
22450;DHT22;11392;57.390;-2.468;2023-09-30T00:22:16;10.70;99.90
22450;DHT22;11392;57.390;-2.468;2023-09-30T00:24:43;10.70;99.90
22450;DHT22;11392;57.390;-2.468;2023-09-30T00:27:10;10.80;99.90
22450;DHT22;11392;57.390;-2.468;2023-09-30T00:29:38;10.80;99.90
22450;DHT22;11392;57.390;-2.468;2023-09-30T00:32:05;10.90;99.90
22450;DHT22;11392;57.390;-2.468;2023-09-30T00:34:35;10.90;99.90
22450;DHT22;11392;57.390;-2.468;2023-09-30T00:37:03;11.00;99.90
22450;DHT22;11392;57.390;-2.468;2023-09-30T00:39:30;11.00;99.90
22450;DHT22;11392;57.390;-2.468;2023-09-30T00:41:59;11.00;99.90
22450;DHT22;11392;57.390;-2.468;2023-09-30T00:44:26;11.00;99.90
22450;DHT22;11392;57.390;-2.468;2023-09-30T00:46:54;10.90;99.90
22450;DHT22;11392;57.390;-2.468;2023-09-30T00:49:25;10.90;99.90
22450;DHT22;11392;57.390;-2.468;2023-09-30T00:51:53;10.80;99.90
22450;DHT22;11392;57.390;-2.468;2023-09-30T00:54:22;10.80;99.90
22450;DHT22;11392;57.390;-2.468;2023-09-30T00:56:52;10.70;99.90
22450;DHT22;11392;57.390;-2.468;2023-09-30T00:59:23;10.80;99.90
22450;DHT22;11392;57.390;-2.468;2023-09-30T01:01:52;10.70;99.90
22450;DHT22;11392;57.390;-2.468;2023-09-30T01:04:21;10.70;99.90
22450;DHT22;11392;57.390;-2.468;2023-09-30T01:06:48;10.70;99.90
22450;DHT22;11392;57.390;-2.468;2023-09-30T01:09:15;10.70;99.90
22450;DHT22;11392;57.390;-2.468;2023-09-30T01:11:42;10.70;99.90
22450;DHT22;11392;57.390;-2.468;2023-09-30T01:14:27;10.60;99.90
22450;DHT22;11392;57.390;-2.468;2023-09-30T01:16:55;10.60;99.90
22450;DHT22;11392;57.390;-2.468;2023-09-30T01:19:22;10.60;99.90
22450;DHT22;11392;57.390;-2.468;2023-09-30T01:21:58;10.50;99.90
22450;DHT22;11392;57.390;-2.468;2023-09-30T01:24:42;10.40;99.90
22450;DHT22;11392;57.390;-2.468;2023-09-30T01:27:09;10.40;99.90
22450;DHT22;11392;57.390;-2.468;2023-09-30T01:29:36;10.40;99.90
22450;DHT22;11392;57.390;-2.468;2023-09-30T01:32:06;10.40;99.90
22450;DHT22;11392;57.390;-2.468;2023-09-30T01:34:36;10.50;99.90
22450;DHT22;11392;57.390;-2.468;2023-09-30T01:37:04;10.50;99.90
22450;DHT22;11392;57.390;-2.468;2023-09-30T01:39:32;10.50;99.90
22450;DHT22;11392;57.390;-2.468;2023-09-30T01:41:59;10.50;99.90
22450;DHT22;11392;57.390;-2.468;2023-09-30T01:44:27;10.50;99.90
22450;DHT22;11392;57.390;-2.468;2023-09-30T01:46:54;10.50;99.90
22450;DHT22;11392;57.390;-2.468;2023-09-30T01:49:22;10.50;99.90
22450;DHT22;11392;57.390;-2.468;2023-09-30T01:51:53;10.50;99.90
22450;DHT22;11392;57.390;-2.468;2023-09-30T01:54:20;10.50;99.90
22450;DHT22;11392;57.390;-2.468;2023-09-30T01:56:48;10.50;99.90
22450;DHT22;11392;57.390;-2.468;2023-09-30T01:59:16;10.50;99.90
22450;DHT22;11392;57.390;-2.468;2023-09-30T02:01:43;10.50;99.90
22450;DHT22;11392;57.390;-2.468;2023-09-30T02:04:13;10.50;99.90
22450;DHT22;11392;57.390;-2.468;2023-09-30T02:06:44;10.50;99.90
22450;DHT22;11392;57.390;-2.468;2023-09-30T02:09:11;10.50;99.90
22450;DHT22;11392;57.390;-2.468;2023-09-30T02:11:38;10.50;99.90
22450;DHT22;11392;57.390;-2.468;2023-09-30T02:14:09;10.50;99.90
22450;DHT22;11392;57.390;-2.468;2023-09-30T02:16:38;10.50;99.90
22450;DHT22;11392;57.390;-2.468;2023-09-30T02:19:06;10.40;99.90
22450;DHT22;11392;57.390;-2.468;2023-09-30T02:21:33;10.30;99.90
22450;DHT22;11392;57.390;-2.468;2023-09-30T02:24:00;10.40;99.90
22450;DHT22;11392;57.390;-2.468;2023-09-30T02:26:27;10.40;99.90
22450;DHT22;11392;57.390;-2.468;2023-09-30T02:28:56;10.40;99.90
22450;DHT22;11392;57.390;-2.468;2023-09-30T02:31:23;10.30;99.90
22450;DHT22;11392;57.390;-2.468;2023-09-30T02:33:51;10.30;99.90
22450;DHT22;11392;57.390;-2.468;2023-09-30T02:36:18;10.30;99.90
22450;DHT22;11392;57.390;-2.468;2023-09-30T02:38:45;10.20;99.90
22450;DHT22;11392;57.390;-2.468;2023-09-30T02:41:15;10.20;99.90
22450;DHT22;11392;57.390;-2.468;2023-09-30T02:43:42;10.20;99.90
22450;DHT22;11392;57.390;-2.468;2023-09-30T02:46:09;10.20;99.90
22450;DHT22;11392;57.390;-2.468;2023-09-30T02:48:37;10.20;99.90
22450;DHT22;11392;57.390;-2.468;2023-09-30T02:51:04;10.20;99.90
22450;DHT22;11392;57.390;-2.468;2023-09-30T02:53:36;10.20;99.90
22450;DHT22;11392;57.390;-2.468;2023-09-30T02:56:03;10.20;99.90
22450;DHT22;11392;57.390;-2.468;2023-09-30T02:58:31;10.20;99.90
22450;DHT22;11392;57.390;-2.468;2023-09-30T03:00:58;10.30;99.90
22450;DHT22;11392;57.390;-2.468;2023-09-30T03:03:26;10.40;99.90
22450;DHT22;11392;57.390;-2.468;2023-09-30T03:05:54;10.40;99.90
22450;DHT22;11392;57.390;-2.468;2023-09-30T03:08:21;10.50;99.90
22450;DHT22;11392;57.390;-2.468;2023-09-30T03:10:49;10.50;99.90
22450;DHT22;11392;57.390;-2.468;2023-09-30T03:13:16;10.60;99.90
22450;DHT22;11392;57.390;-2.468;2023-09-30T03:15:45;10.60;99.90
22450;DHT22;11392;57.390;-2.468;2023-09-30T03:18:13;10.60;99.90
22450;DHT22;11392;57.390;-2.468;2023-09-30T03:20:41;10.60;99.90
22450;DHT22;11392;57.390;-2.468;2023-09-30T03:23:10;10.60;99.90
22450;DHT22;11392;57.390;-2.468;2023-09-30T03:25:41;10.60;99.90
22450;DHT22;11392;57.390;-2.468;2023-09-30T03:28:09;10.60;99.90
22450;DHT22;11392;57.390;-2.468;2023-09-30T03:30:36;10.60;99.90
22450;DHT22;11392;57.390;-2.468;2023-09-30T03:33:03;10.60;99.90
22450;DHT22;11392;57.390;-2.468;2023-09-30T03:35:31;10.60;99.90
22450;DHT22;11392;57.390;-2.468;2023-09-30T03:37:59;10.60;99.90
22450;DHT22;11392;57.390;-2.468;2023-09-30T03:40:27;10.70;99.90
22450;DHT22;11392;57.390;-2.468;2023-09-30T03:42:56;10.70;99.90
22450;DHT22;11392;57.390;-2.468;2023-09-30T03:45:23;10.70;99.90
22450;DHT22;11392;57.390;-2.468;2023-09-30T03:47:50;10.70;99.90
22450;DHT22;11392;57.390;-2.468;2023-09-30T03:50:18;10.70;99.90
22450;DHT22;11392;57.390;-2.468;2023-09-30T03:52:46;10.80;99.90
22450;DHT22;11392;57.390;-2.468;2023-09-30T03:55:17;10.80;99.90
22450;DHT22;11392;57.390;-2.468;2023-09-30T03:57:48;10.80;99.90
22450;DHT22;11392;57.390;-2.468;2023-09-30T04:00:15;10.80;99.90
22450;DHT22;11392;57.390;-2.468;2023-09-30T04:02:45;10.70;99.90
22450;DHT22;11392;57.390;-2.468;2023-09-30T04:05:18;10.60;99.90
22450;DHT22;11392;57.390;-2.468;2023-09-30T04:07:46;10.60;99.90
22450;DHT22;11392;57.390;-2.468;2023-09-30T04:10:14;10.70;99.90
22450;DHT22;11392;57.390;-2.468;2023-09-30T04:12:41;10.70;99.90
22450;DHT22;11392;57.390;-2.468;2023-09-30T04:15:09;10.70;99.90
22450;DHT22;11392;57.390;-2.468;2023-09-30T04:17:39;10.60;99.90
22450;DHT22;11392;57.390;-2.468;2023-09-30T04:20:07;10.60;99.90
22450;DHT22;11392;57.390;-2.468;2023-09-30T04:22:45;10.60;99.90
22450;DHT22;11392;57.390;-2.468;2023-09-30T04:25:16;10.60;99.90
22450;DHT22;11392;57.390;-2.468;2023-09-30T04:27:43;10.50;99.90
22450;DHT22;11392;57.390;-2.468;2023-09-30T04:30:11;10.50;99.90
22450;DHT22;11392;57.390;-2.468;2023-09-30T04:32:39;10.60;99.90
22450;DHT22;11392;57.390;-2.468;2023-09-30T04:35:06;10.60;99.90
22450;DHT22;11392;57.390;-2.468;2023-09-30T04:37:37;10.70;99.90
22450;DHT22;11392;57.390;-2.468;2023-09-30T04:40:05;10.60;99.90
22450;DHT22;11392;57.390;-2.468;2023-09-30T04:42:49;10.60;99.90
22450;DHT22;11392;57.390;-2.468;2023-09-30T04:45:16;10.60;99.90
22450;DHT22;11392;57.390;-2.468;2023-09-30T04:47:47;10.60;99.90
22450;DHT22;11392;57.390;-2.468;2023-09-30T04:50:17;10.60;99.90
22450;DHT22;11392;57.390;-2.468;2023-09-30T04:52:44;10.50;99.90
22450;DHT22;11392;57.390;-2.468;2023-09-30T04:55:12;10.50;99.90
22450;DHT22;11392;57.390;-2.468;2023-09-30T04:57:44;10.50;99.90
22450;DHT22;11392;57.390;-2.468;2023-09-30T05:00:13;10.60;99.90
22450;DHT22;11392;57.390;-2.468;2023-09-30T05:02:41;10.60;99.90
22450;DHT22;11392;57.390;-2.468;2023-09-30T05:05:08;10.60;99.90
22450;DHT22;11392;57.390;-2.468;2023-09-30T05:07:35;10.60;99.90
22450;DHT22;11392;57.390;-2.468;2023-09-30T05:10:06;10.60;99.90
22450;DHT22;11392;57.390;-2.468;2023-09-30T05:12:37;10.60;99.90
22450;DHT22;11392;57.390;-2.468;2023-09-30T05:15:05;10.50;99.90
22450;DHT22;11392;57.390;-2.468;2023-09-30T05:17:35;10.50;99.90
22450;DHT22;11392;57.390;-2.468;2023-09-30T05:20:02;10.50;99.90
22450;DHT22;11392;57.390;-2.468;2023-09-30T05:22:34;10.50;99.90
22450;DHT22;11392;57.390;-2.468;2023-09-30T05:25:01;10.50;99.90
22450;DHT22;11392;57.390;-2.468;2023-09-30T05:27:28;10.50;99.90
22450;DHT22;11392;57.390;-2.468;2023-09-30T05:29:55;10.50;99.90
22450;DHT22;11392;57.390;-2.468;2023-09-30T05:32:22;10.50;99.90
22450;DHT22;11392;57.390;-2.468;2023-09-30T05:34:50;10.50;99.90
22450;DHT22;11392;57.390;-2.468;2023-09-30T05:37:20;10.60;99.90
22450;DHT22;11392;57.390;-2.468;2023-09-30T05:39:50;10.60;99.90
22450;DHT22;11392;57.390;-2.468;2023-09-30T05:42:17;10.50;99.90
22450;DHT22;11392;57.390;-2.468;2023-09-30T05:44:45;10.60;99.90
22450;DHT22;11392;57.390;-2.468;2023-09-30T05:47:12;10.50;99.90
22450;DHT22;11392;57.390;-2.468;2023-09-30T05:49:39;10.50;99.90
22450;DHT22;11392;57.390;-2.468;2023-09-30T05:52:06;10.40;99.90
22450;DHT22;11392;57.390;-2.468;2023-09-30T05:54:34;10.40;99.90
22450;DHT22;11392;57.390;-2.468;2023-09-30T05:57:01;10.30;99.90
22450;DHT22;11392;57.390;-2.468;2023-09-30T05:59:29;10.30;99.90
22450;DHT22;11392;57.390;-2.468;2023-09-30T06:01:57;10.20;99.90
22450;DHT22;11392;57.390;-2.468;2023-09-30T06:04:24;10.20;99.90
22450;DHT22;11392;57.390;-2.468;2023-09-30T06:06:52;10.20;99.90
22450;DHT22;11392;57.390;-2.468;2023-09-30T06:09:20;10.30;99.90
22450;DHT22;11392;57.390;-2.468;2023-09-30T06:11:52;10.30;99.90
22450;DHT22;11392;57.390;-2.468;2023-09-30T06:14:19;10.30;99.90
22450;DHT22;11392;57.390;-2.468;2023-09-30T06:16:46;10.40;99.90
22450;DHT22;11392;57.390;-2.468;2023-09-30T06:19:14;10.30;99.90
22450;DHT22;11392;57.390;-2.468;2023-09-30T06:21:43;10.20;99.90
22450;DHT22;11392;57.390;-2.468;2023-09-30T06:24:10;10.10;99.90
22450;DHT22;11392;57.390;-2.468;2023-09-30T06:26:37;10.10;99.90
22450;DHT22;11392;57.390;-2.468;2023-09-30T06:29:04;10.00;99.90
22450;DHT22;11392;57.390;-2.468;2023-09-30T06:31:33;10.00;99.90
22450;DHT22;11392;57.390;-2.468;2023-09-30T06:34:01;9.90;99.90
22450;DHT22;11392;57.390;-2.468;2023-09-30T06:36:28;9.80;99.90
22450;DHT22;11392;57.390;-2.468;2023-09-30T06:38:55;9.70;99.90
22450;DHT22;11392;57.390;-2.468;2023-09-30T06:41:22;9.80;99.90
22450;DHT22;11392;57.390;-2.468;2023-09-30T06:43:50;9.90;99.90
22450;DHT22;11392;57.390;-2.468;2023-09-30T06:46:18;10.00;99.90
22450;DHT22;11392;57.390;-2.468;2023-09-30T06:48:45;10.00;99.90
22450;DHT22;11392;57.390;-2.468;2023-09-30T06:51:14;10.20;99.90
22450;DHT22;11392;57.390;-2.468;2023-09-30T06:53:44;10.50;99.90
22450;DHT22;11392;57.390;-2.468;2023-09-30T06:56:12;10.60;99.90
22450;DHT22;11392;57.390;-2.468;2023-09-30T06:58:41;10.50;99.90
22450;DHT22;11392;57.390;-2.468;2023-09-30T07:01:08;10.50;99.90
22450;DHT22;11392;57.390;-2.468;2023-09-30T07:03:36;10.40;99.90
22450;DHT22;11392;57.390;-2.468;2023-09-30T07:06:03;10.40;99.90
22450;DHT22;11392;57.390;-2.468;2023-09-30T07:08:30;10.30;99.90
22450;DHT22;11392;57.390;-2.468;2023-09-30T07:10:57;10.30;99.90
22450;DHT22;11392;57.390;-2.468;2023-09-30T07:13:25;10.40;99.90
22450;DHT22;11392;57.390;-2.468;2023-09-30T07:15:52;10.50;99.90
22450;DHT22;11392;57.390;-2.468;2023-09-30T07:18:19;10.60;99.90
22450;DHT22;11392;57.390;-2.468;2023-09-30T07:20:46;10.60;99.90
22450;DHT22;11392;57.390;-2.468;2023-09-30T07:23:13;10.60;99.90
22450;DHT22;11392;57.390;-2.468;2023-09-30T07:25:47;10.70;99.90
22450;DHT22;11392;57.390;-2.468;2023-09-30T07:28:14;10.80;99.90
22450;DHT22;11392;57.390;-2.468;2023-09-30T07:30:41;10.80;99.90
22450;DHT22;11392;57.390;-2.468;2023-09-30T07:33:09;10.80;99.90
22450;DHT22;11392;57.390;-2.468;2023-09-30T07:35:37;10.90;99.90
22450;DHT22;11392;57.390;-2.468;2023-09-30T07:38:06;10.90;99.90
22450;DHT22;11392;57.390;-2.468;2023-09-30T07:40:33;11.00;99.90
22450;DHT22;11392;57.390;-2.468;2023-09-30T07:43:00;11.10;99.90
22450;DHT22;11392;57.390;-2.468;2023-09-30T07:45:27;11.10;99.90
22450;DHT22;11392;57.390;-2.468;2023-09-30T07:47:55;11.10;99.90
22450;DHT22;11392;57.390;-2.468;2023-09-30T07:50:22;11.10;99.90
22450;DHT22;11392;57.390;-2.468;2023-09-30T07:52:50;11.10;99.90
22450;DHT22;11392;57.390;-2.468;2023-09-30T07:55:17;11.10;99.90
22450;DHT22;11392;57.390;-2.468;2023-09-30T07:57:44;11.20;99.90
22450;DHT22;11392;57.390;-2.468;2023-09-30T08:00:13;11.20;99.90
22450;DHT22;11392;57.390;-2.468;2023-09-30T08:02:44;11.30;99.90
22450;DHT22;11392;57.390;-2.468;2023-09-30T08:05:12;11.30;99.90
22450;DHT22;11392;57.390;-2.468;2023-09-30T08:07:39;11.40;99.90
22450;DHT22;11392;57.390;-2.468;2023-09-30T08:10:07;11.40;99.90
22450;DHT22;11392;57.390;-2.468;2023-09-30T08:12:40;11.40;99.90
22450;DHT22;11392;57.390;-2.468;2023-09-30T08:15:08;11.50;99.90
22450;DHT22;11392;57.390;-2.468;2023-09-30T08:17:39;11.50;99.90
22450;DHT22;11392;57.390;-2.468;2023-09-30T08:20:07;11.40;99.90
22450;DHT22;11392;57.390;-2.468;2023-09-30T08:22:38;11.60;99.90
22450;DHT22;11392;57.390;-2.468;2023-09-30T08:25:06;11.50;99.90
22450;DHT22;11392;57.390;-2.468;2023-09-30T08:27:33;11.60;99.90
22450;DHT22;11392;57.390;-2.468;2023-09-30T08:30:01;11.60;99.90
22450;DHT22;11392;57.390;-2.468;2023-09-30T08:32:36;11.70;99.90
22450;DHT22;11392;57.390;-2.468;2023-09-30T08:35:04;11.70;99.90
22450;DHT22;11392;57.390;-2.468;2023-09-30T08:37:31;11.80;99.90
22450;DHT22;11392;57.390;-2.468;2023-09-30T08:39:58;11.80;99.90
22450;DHT22;11392;57.390;-2.468;2023-09-30T08:42:27;11.80;99.90
22450;DHT22;11392;57.390;-2.468;2023-09-30T08:45:00;12.00;99.90
22450;DHT22;11392;57.390;-2.468;2023-09-30T08:47:28;12.00;99.90
22450;DHT22;11392;57.390;-2.468;2023-09-30T08:49:59;12.00;99.90
22450;DHT22;11392;57.390;-2.468;2023-09-30T08:52:33;11.90;99.90
22450;DHT22;11392;57.390;-2.468;2023-09-30T08:55:09;12.00;99.90
22450;DHT22;11392;57.390;-2.468;2023-09-30T08:57:38;12.00;99.90
22450;DHT22;11392;57.390;-2.468;2023-09-30T09:00:12;12.00;99.90
22450;DHT22;11392;57.390;-2.468;2023-09-30T09:02:41;12.10;99.90
22450;DHT22;11392;57.390;-2.468;2023-09-30T09:05:09;12.10;99.90
22450;DHT22;11392;57.390;-2.468;2023-09-30T09:07:36;12.10;99.90
22450;DHT22;11392;57.390;-2.468;2023-09-30T09:10:10;12.20;99.90
22450;DHT22;11392;57.390;-2.468;2023-09-30T09:12:40;12.30;99.90
22450;DHT22;11392;57.390;-2.468;2023-09-30T09:15:19;12.30;99.90
22450;DHT22;11392;57.390;-2.468;2023-09-30T09:17:46;12.30;99.90
22450;DHT22;11392;57.390;-2.468;2023-09-30T09:20:19;12.30;99.90
22450;DHT22;11392;57.390;-2.468;2023-09-30T09:22:50;12.40;99.90
22450;DHT22;11392;57.390;-2.468;2023-09-30T09:25:20;12.40;99.90
22450;DHT22;11392;57.390;-2.468;2023-09-30T09:27:51;12.50;99.90
22450;DHT22;11392;57.390;-2.468;2023-09-30T09:33:00;12.60;99.90
22450;DHT22;11392;57.390;-2.468;2023-09-30T09:35:28;12.70;99.90
22450;DHT22;11392;57.390;-2.468;2023-09-30T09:38:03;12.70;99.90
22450;DHT22;11392;57.390;-2.468;2023-09-30T09:40:35;12.80;99.90
22450;DHT22;11392;57.390;-2.468;2023-09-30T09:43:04;12.80;99.90
22450;DHT22;11392;57.390;-2.468;2023-09-30T09:45:34;12.70;99.90
22450;DHT22;11392;57.390;-2.468;2023-09-30T09:48:03;12.80;99.90
22450;DHT22;11392;57.390;-2.468;2023-09-30T09:50:34;12.90;99.90
22450;DHT22;11392;57.390;-2.468;2023-09-30T09:53:06;12.80;99.90
22450;DHT22;11392;57.390;-2.468;2023-09-30T09:55:36;12.80;99.90
22450;DHT22;11392;57.390;-2.468;2023-09-30T09:58:07;12.90;99.90
22450;DHT22;11392;57.390;-2.468;2023-09-30T10:00:35;12.80;99.90
22450;DHT22;11392;57.390;-2.468;2023-09-30T10:03:04;12.80;99.90
22450;DHT22;11392;57.390;-2.468;2023-09-30T10:05:31;12.90;99.90
22450;DHT22;11392;57.390;-2.468;2023-09-30T10:08:07;12.90;99.90
22450;DHT22;11392;57.390;-2.468;2023-09-30T10:10:36;13.00;99.90
22450;DHT22;11392;57.390;-2.468;2023-09-30T10:13:04;13.20;99.90
22450;DHT22;11392;57.390;-2.468;2023-09-30T10:18:05;13.40;99.90
22450;DHT22;11392;57.390;-2.468;2023-09-30T10:20:44;13.50;99.90
22450;DHT22;11392;57.390;-2.468;2023-09-30T10:23:19;13.50;99.90
22450;DHT22;11392;57.390;-2.468;2023-09-30T10:25:49;13.60;99.90
22450;DHT22;11392;57.390;-2.468;2023-09-30T10:28:46;13.60;99.90
22450;DHT22;11392;57.390;-2.468;2023-09-30T10:31:18;13.50;99.90
22450;DHT22;11392;57.390;-2.468;2023-09-30T10:36:34;13.50;99.90
22450;DHT22;11392;57.390;-2.468;2023-09-30T10:39:03;13.50;99.90
22450;DHT22;11392;57.390;-2.468;2023-09-30T10:49:52;13.40;99.90
22450;DHT22;11392;57.390;-2.468;2023-09-30T10:52:23;13.50;99.90
22450;DHT22;11392;57.390;-2.468;2023-09-30T10:54:53;13.60;99.90
22450;DHT22;11392;57.390;-2.468;2023-09-30T10:57:27;13.60;99.90
22450;DHT22;11392;57.390;-2.468;2023-09-30T11:00:11;13.70;99.90
22450;DHT22;11392;57.390;-2.468;2023-09-30T11:02:49;13.70;99.90
22450;DHT22;11392;57.390;-2.468;2023-09-30T11:05:18;13.70;99.90
22450;DHT22;11392;57.390;-2.468;2023-09-30T11:08:02;13.70;99.90
22450;DHT22;11392;57.390;-2.468;2023-09-30T11:10:30;13.60;99.90
22450;DHT22;11392;57.390;-2.468;2023-09-30T11:12:58;13.60;99.90
22450;DHT22;11392;57.390;-2.468;2023-09-30T11:15:25;13.60;99.90
22450;DHT22;11392;57.390;-2.468;2023-09-30T11:18:14;13.60;99.90
22450;DHT22;11392;57.390;-2.468;2023-09-30T11:20:42;13.60;99.90
22450;DHT22;11392;57.390;-2.468;2023-09-30T11:23:11;13.60;99.90
22450;DHT22;11392;57.390;-2.468;2023-09-30T11:25:39;13.60;99.90
22450;DHT22;11392;57.390;-2.468;2023-09-30T11:28:16;13.60;99.90
22450;DHT22;11392;57.390;-2.468;2023-09-30T11:31:00;13.60;99.90
22450;DHT22;11392;57.390;-2.468;2023-09-30T11:33:29;13.50;99.90
22450;DHT22;11392;57.390;-2.468;2023-09-30T11:36:00;13.60;99.90
22450;DHT22;11392;57.390;-2.468;2023-09-30T11:38:31;13.50;99.90
22450;DHT22;11392;57.390;-2.468;2023-09-30T11:41:05;13.60;99.90
22450;DHT22;11392;57.390;-2.468;2023-09-30T11:43:34;13.60;99.90
22450;DHT22;11392;57.390;-2.468;2023-09-30T11:46:08;13.60;99.90
22450;DHT22;11392;57.390;-2.468;2023-09-30T11:48:36;13.60;99.90
22450;DHT22;11392;57.390;-2.468;2023-09-30T11:51:04;13.70;99.90
22450;DHT22;11392;57.390;-2.468;2023-09-30T11:53:34;13.80;99.90
22450;DHT22;11392;57.390;-2.468;2023-09-30T11:56:02;13.80;99.90
22450;DHT22;11392;57.390;-2.468;2023-09-30T11:58:29;13.90;99.90
22450;DHT22;11392;57.390;-2.468;2023-09-30T12:00:59;13.90;99.90
22450;DHT22;11392;57.390;-2.468;2023-09-30T12:03:27;13.80;99.90
22450;DHT22;11392;57.390;-2.468;2023-09-30T12:05:54;13.80;99.90
22450;DHT22;11392;57.390;-2.468;2023-09-30T12:08:24;13.70;99.90
22450;DHT22;11392;57.390;-2.468;2023-09-30T12:10:51;13.60;99.90
22450;DHT22;11392;57.390;-2.468;2023-09-30T12:13:18;13.60;99.90
22450;DHT22;11392;57.390;-2.468;2023-09-30T12:15:45;13.60;99.90
22450;DHT22;11392;57.390;-2.468;2023-09-30T12:18:12;13.60;99.90
22450;DHT22;11392;57.390;-2.468;2023-09-30T12:20:43;13.60;99.90
22450;DHT22;11392;57.390;-2.468;2023-09-30T12:23:11;13.60;99.90
22450;DHT22;11392;57.390;-2.468;2023-09-30T12:25:38;13.60;99.90
22450;DHT22;11392;57.390;-2.468;2023-09-30T12:28:05;13.60;99.90
22450;DHT22;11392;57.390;-2.468;2023-09-30T12:30:32;13.60;99.90
22450;DHT22;11392;57.390;-2.468;2023-09-30T12:32:59;13.60;99.90
22450;DHT22;11392;57.390;-2.468;2023-09-30T12:35:27;13.70;99.90
22450;DHT22;11392;57.390;-2.468;2023-09-30T12:37:54;13.70;99.90
22450;DHT22;11392;57.390;-2.468;2023-09-30T12:40:21;13.70;99.90
22450;DHT22;11392;57.390;-2.468;2023-09-30T12:42:48;13.70;99.90
22450;DHT22;11392;57.390;-2.468;2023-09-30T12:45:15;13.70;99.90
22450;DHT22;11392;57.390;-2.468;2023-09-30T12:47:44;13.80;99.90
22450;DHT22;11392;57.390;-2.468;2023-09-30T12:50:14;13.90;99.90
22450;DHT22;11392;57.390;-2.468;2023-09-30T12:52:41;13.90;99.90
22450;DHT22;11392;57.390;-2.468;2023-09-30T12:55:08;13.90;99.90
22450;DHT22;11392;57.390;-2.468;2023-09-30T12:57:36;13.80;99.90
22450;DHT22;11392;57.390;-2.468;2023-09-30T13:00:03;13.90;99.90
22450;DHT22;11392;57.390;-2.468;2023-09-30T13:02:31;13.90;99.90
22450;DHT22;11392;57.390;-2.468;2023-09-30T13:04:58;14.00;99.90
22450;DHT22;11392;57.390;-2.468;2023-09-30T13:07:28;14.00;99.90
22450;DHT22;11392;57.390;-2.468;2023-09-30T13:09:55;14.00;99.90
22450;DHT22;11392;57.390;-2.468;2023-09-30T13:12:24;14.00;99.90
22450;DHT22;11392;57.390;-2.468;2023-09-30T13:14:51;13.90;99.90
22450;DHT22;11392;57.390;-2.468;2023-09-30T13:17:20;13.90;99.90
22450;DHT22;11392;57.390;-2.468;2023-09-30T13:19:48;14.00;99.90
22450;DHT22;11392;57.390;-2.468;2023-09-30T13:22:16;13.90;99.90
22450;DHT22;11392;57.390;-2.468;2023-09-30T13:24:45;13.80;99.90
22450;DHT22;11392;57.390;-2.468;2023-09-30T13:27:13;13.90;99.90
22450;DHT22;11392;57.390;-2.468;2023-09-30T13:29:45;13.90;99.90
22450;DHT22;11392;57.390;-2.468;2023-09-30T13:32:13;13.90;99.90
22450;DHT22;11392;57.390;-2.468;2023-09-30T13:34:41;13.90;99.90
22450;DHT22;11392;57.390;-2.468;2023-09-30T13:37:08;13.90;99.90
22450;DHT22;11392;57.390;-2.468;2023-09-30T13:39:36;13.90;99.90
22450;DHT22;11392;57.390;-2.468;2023-09-30T13:42:12;13.90;99.90
22450;DHT22;11392;57.390;-2.468;2023-09-30T13:44:39;13.90;99.90
22450;DHT22;11392;57.390;-2.468;2023-09-30T13:47:07;13.80;99.90
22450;DHT22;11392;57.390;-2.468;2023-09-30T13:49:35;13.80;99.90
22450;DHT22;11392;57.390;-2.468;2023-09-30T13:52:03;13.70;99.90
22450;DHT22;11392;57.390;-2.468;2023-09-30T13:54:31;13.80;99.90
22450;DHT22;11392;57.390;-2.468;2023-09-30T13:56:58;13.80;99.90
22450;DHT22;11392;57.390;-2.468;2023-09-30T13:59:26;13.80;99.90
22450;DHT22;11392;57.390;-2.468;2023-09-30T14:01:54;13.70;99.90
22450;DHT22;11392;57.390;-2.468;2023-09-30T14:04:22;13.70;99.90
22450;DHT22;11392;57.390;-2.468;2023-09-30T14:06:50;13.60;99.90
22450;DHT22;11392;57.390;-2.468;2023-09-30T14:09:17;13.70;99.90
22450;DHT22;11392;57.390;-2.468;2023-09-30T14:12:02;13.60;99.90
22450;DHT22;11392;57.390;-2.468;2023-09-30T14:14:32;13.60;99.90
22450;DHT22;11392;57.390;-2.468;2023-09-30T14:17:01;13.60;99.90
22450;DHT22;11392;57.390;-2.468;2023-09-30T14:19:35;13.50;99.90
22450;DHT22;11392;57.390;-2.468;2023-09-30T14:22:02;13.50;99.90
22450;DHT22;11392;57.390;-2.468;2023-09-30T14:24:32;13.50;99.90
22450;DHT22;11392;57.390;-2.468;2023-09-30T14:27:01;13.40;99.90
22450;DHT22;11392;57.390;-2.468;2023-09-30T14:29:30;13.30;99.90
22450;DHT22;11392;57.390;-2.468;2023-09-30T14:31:58;13.40;99.90
22450;DHT22;11392;57.390;-2.468;2023-09-30T14:34:25;13.30;99.90
22450;DHT22;11392;57.390;-2.468;2023-09-30T14:36:53;13.30;99.90
22450;DHT22;11392;57.390;-2.468;2023-09-30T14:39:20;13.30;99.90
22450;DHT22;11392;57.390;-2.468;2023-09-30T14:41:48;13.30;99.90
22450;DHT22;11392;57.390;-2.468;2023-09-30T14:44:16;13.30;99.90
22450;DHT22;11392;57.390;-2.468;2023-09-30T14:46:44;13.20;99.90
22450;DHT22;11392;57.390;-2.468;2023-09-30T14:49:12;13.20;99.90
22450;DHT22;11392;57.390;-2.468;2023-09-30T14:51:39;13.10;99.90
22450;DHT22;11392;57.390;-2.468;2023-09-30T14:54:07;13.10;99.90
22450;DHT22;11392;57.390;-2.468;2023-09-30T14:56:34;13.10;99.90
22450;DHT22;11392;57.390;-2.468;2023-09-30T14:59:01;13.10;99.90
22450;DHT22;11392;57.390;-2.468;2023-09-30T15:01:29;13.00;99.90
22450;DHT22;11392;57.390;-2.468;2023-09-30T15:03:56;13.00;99.90
22450;DHT22;11392;57.390;-2.468;2023-09-30T15:06:26;13.00;99.90
22450;DHT22;11392;57.390;-2.468;2023-09-30T15:08:53;13.00;99.90
22450;DHT22;11392;57.390;-2.468;2023-09-30T15:11:20;12.90;99.90
22450;DHT22;11392;57.390;-2.468;2023-09-30T15:13:47;12.90;99.90
22450;DHT22;11392;57.390;-2.468;2023-09-30T15:16:21;12.90;99.90
22450;DHT22;11392;57.390;-2.468;2023-09-30T15:18:49;12.90;99.90
22450;DHT22;11392;57.390;-2.468;2023-09-30T15:21:16;12.90;99.90
22450;DHT22;11392;57.390;-2.468;2023-09-30T15:23:43;12.80;99.90
22450;DHT22;11392;57.390;-2.468;2023-09-30T15:26:11;12.80;99.90
22450;DHT22;11392;57.390;-2.468;2023-09-30T15:28:38;12.80;99.90
22450;DHT22;11392;57.390;-2.468;2023-09-30T15:31:05;12.70;99.90
22450;DHT22;11392;57.390;-2.468;2023-09-30T15:33:33;12.70;99.90
22450;DHT22;11392;57.390;-2.468;2023-09-30T15:36:12;12.70;99.90
22450;DHT22;11392;57.390;-2.468;2023-09-30T15:38:40;12.70;99.90
22450;DHT22;11392;57.390;-2.468;2023-09-30T15:41:07;12.60;99.90